Terminal Aerodrome Forecast
Issued by NWS Quad Cities IA IL

Home | Current Version | Previous Version | Text Only | Print | Product List | Glossary On
Versions: 1 2 3 4 5 6 7 8 9 10 11 12 13 14 15 16 17 18 19 20 21
000
FTUS43 KDVN 271720
TAFMLI
TAF
KMLI 271720Z 2718/2818 28010KT P6SM SCT030
     FM280100 24004KT P6SM SKC
     FM280400 20003KT P6SM SKC
     FM281400 17007KT P6SM FEW250=

USA.gov is the U.S. government's official web portal to all federal, state and local government web resources and services.